sensor_id;sensor_type;location;lat;lon;timestamp;pressure;altitude;pressure_sealevel;temperature;humidity
51239;BME280;38154;47.548;18.828;2023-05-10T00:00:33;98942.13;;;10.26;100.00
51239;BME280;38154;47.548;18.828;2023-05-10T00:02:59;98941.22;;;10.19;100.00
51239;BME280;38154;47.548;18.828;2023-05-10T00:05:24;98934.25;;;10.15;100.00
51239;BME280;38154;47.548;18.828;2023-05-10T00:07:50;98931.63;;;10.11;100.00
51239;BME280;38154;47.548;18.828;2023-05-10T00:10:16;98943.75;;;10.02;100.00
51239;BME280;38154;47.548;18.828;2023-05-10T00:12:42;98934.16;;;9.98;100.00
51239;BME280;38154;47.548;18.828;2023-05-10T00:15:08;98935.91;;;9.98;100.00
51239;BME280;38154;47.548;18.828;2023-05-10T00:17:33;98933.25;;;9.92;100.00
51239;BME280;38154;47.548;18.828;2023-05-10T00:19:59;98932.31;;;9.82;100.00
51239;BME280;38154;47.548;18.828;2023-05-10T00:22:25;98934.03;;;9.80;100.00
51239;BME280;38154;47.548;18.828;2023-05-10T00:24:51;98931.41;;;9.77;100.00
51239;BME280;38154;47.548;18.828;2023-05-10T00:27:17;98924.41;;;9.70;100.00
51239;BME280;38154;47.548;18.828;2023-05-10T00:29:42;98921.81;;;9.68;100.00
51239;BME280;38154;47.548;18.828;2023-05-10T00:32:08;98920.03;;;9.62;100.00
51239;BME280;38154;47.548;18.828;2023-05-10T00:34:33;98919.16;;;9.60;100.00
51239;BME280;38154;47.548;18.828;2023-05-10T00:36:59;98926.94;;;9.57;100.00
51239;BME280;38154;47.548;18.828;2023-05-10T00:39:25;98925.97;;;9.46;100.00
51239;BME280;38154;47.548;18.828;2023-05-10T00:41:52;98926.81;;;9.40;100.00
51239;BME280;38154;47.548;18.828;2023-05-10T00:44:17;98919.81;;;9.36;100.00
51239;BME280;38154;47.548;18.828;2023-05-10T00:46:44;98925.91;;;9.35;100.00
51239;BME280;38154;47.548;18.828;2023-05-10T00:49:10;98924.97;;;9.28;100.00
51239;BME280;38154;47.548;18.828;2023-05-10T00:51:35;98912.72;;;9.15;100.00
51239;BME280;38154;47.548;18.828;2023-05-10T00:54:02;98917.06;;;9.19;100.00
51239;BME280;38154;47.548;18.828;2023-05-10T00:56:27;98917.91;;;9.18;100.00
51239;BME280;38154;47.548;18.828;2023-05-10T00:58:55;98914.50;;;9.24;100.00
51239;BME280;38154;47.548;18.828;2023-05-10T01:01:20;98917.91;;;9.15;100.00
51239;BME280;38154;47.548;18.828;2023-05-10T01:03:46;98915.25;;;9.10;100.00
51239;BME280;38154;47.548;18.828;2023-05-10T01:06:12;98910.87;;;9.08;100.00
51239;BME280;38154;47.548;18.828;2023-05-10T01:08:38;98907.38;;;9.03;100.00
51239;BME280;38154;47.548;18.828;2023-05-10T01:11:04;98914.25;;;8.98;100.00
51239;BME280;38154;47.548;18.828;2023-05-10T01:15:56;98904.66;;;8.89;100.00
51239;BME280;38154;47.548;18.828;2023-05-10T01:18:21;98907.22;;;8.86;100.00
51239;BME280;38154;47.548;18.828;2023-05-10T01:20:48;98918.50;;;8.89;100.00
51239;BME280;38154;47.548;18.828;2023-05-10T01:23:24;98905.50;;;8.89;100.00
51239;BME280;38154;47.548;18.828;2023-05-10T01:26:04;98910.69;;;8.88;100.00
51239;BME280;38154;47.548;18.828;2023-05-10T01:28:37;98912.38;;;8.83;100.00
51239;BME280;38154;47.548;18.828;2023-05-10T01:31:29;98912.31;;;8.75;100.00
51239;BME280;38154;47.548;18.828;2023-05-10T01:34:00;98908.00;;;8.79;100.00
51239;BME280;38154;47.548;18.828;2023-05-10T01:38:56;98909.66;;;8.70;100.00
51239;BME280;38154;47.548;18.828;2023-05-10T01:46:20;98907.06;;;8.70;100.00
51239;BME280;38154;47.548;18.828;2023-05-10T01:48:51;98910.47;;;8.66;100.00
51239;BME280;38154;47.548;18.828;2023-05-10T01:51:19;98905.28;;;8.69;100.00
51239;BME280;38154;47.548;18.828;2023-05-10T01:53:47;98899.28;;;8.73;100.00
51239;BME280;38154;47.548;18.828;2023-05-10T01:56:13;98899.31;;;8.75;100.00
51239;BME280;38154;47.548;18.828;2023-05-10T01:58:40;98898.53;;;8.84;100.00
51239;BME280;38154;47.548;18.828;2023-05-10T02:01:09;98904.53;;;8.77;100.00
51239;BME280;38154;47.548;18.828;2023-05-10T02:03:35;98891.44;;;8.70;100.00
51239;BME280;38154;47.548;18.828;2023-05-10T02:06:03;98895.03;;;8.80;100.00
51239;BME280;38154;47.548;18.828;2023-05-10T02:08:30;98894.16;;;8.78;100.00
51239;BME280;38154;47.548;18.828;2023-05-10T02:10:56;98891.56;;;8.81;100.00
51239;BME280;38154;47.548;18.828;2023-05-10T02:13:23;98888.94;;;8.81;100.00
51239;BME280;38154;47.548;18.828;2023-05-10T02:15:49;98881.25;;;8.89;100.00
51239;BME280;38154;47.548;18.828;2023-05-10T02:18:15;98889.06;;;8.92;100.00
51239;BME280;38154;47.548;18.828;2023-05-10T02:20:43;98882.25;;;9.02;100.00
51239;BME280;38154;47.548;18.828;2023-05-10T02:23:10;98883.97;;;9.04;100.00
51239;BME280;38154;47.548;18.828;2023-05-10T02:25:36;98885.78;;;9.12;100.00
51239;BME280;38154;47.548;18.828;2023-05-10T02:28:04;98882.34;;;9.14;100.00
51239;BME280;38154;47.548;18.828;2023-05-10T02:30:31;98886.75;;;9.23;100.00
51239;BME280;38154;47.548;18.828;2023-05-10T02:32:57;98877.22;;;9.26;100.00
51239;BME280;38154;47.548;18.828;2023-05-10T02:35:24;98872.03;;;9.28;100.00
51239;BME280;38154;47.548;18.828;2023-05-10T02:37:50;98879.87;;;9.31;100.00
51239;BME280;38154;47.548;18.828;2023-05-10T02:40:17;98881.66;;;9.34;100.00
51239;BME280;38154;47.548;18.828;2023-05-10T02:42:43;98872.09;;;9.34;100.00
51239;BME280;38154;47.548;18.828;2023-05-10T02:45:13;98884.28;;;9.37;100.00
51239;BME280;38154;47.548;18.828;2023-05-10T02:47:40;98873.87;;;9.40;100.00
51239;BME280;38154;47.548;18.828;2023-05-10T02:50:06;98880.84;;;9.44;100.00
51239;BME280;38154;47.548;18.828;2023-05-10T02:52:36;98871.38;;;9.52;100.00
51239;BME280;38154;47.548;18.828;2023-05-10T02:55:04;98875.72;;;9.56;100.00
51239;BME280;38154;47.548;18.828;2023-05-10T02:57:34;98869.66;;;9.56;100.00
51239;BME280;38154;47.548;18.828;2023-05-10T03:00:04;98869.69;;;9.63;100.00
51239;BME280;38154;47.548;18.828;2023-05-10T03:02:30;98861.94;;;9.70;100.00
51239;BME280;38154;47.548;18.828;2023-05-10T03:04:56;98865.41;;;9.73;100.00
51239;BME280;38154;47.548;18.828;2023-05-10T03:07:21;98866.28;;;9.72;100.00
51239;BME280;38154;47.548;18.828;2023-05-10T03:09:48;98860.22;;;9.76;100.00
51239;BME280;38154;47.548;18.828;2023-05-10T03:17:52;98868.91;;;9.74;100.00
51239;BME280;38154;47.548;18.828;2023-05-10T03:21:05;98867.09;;;9.66;100.00
51239;BME280;38154;47.548;18.828;2023-05-10T03:23:27;98873.13;;;9.58;100.00
51239;BME280;38154;47.548;18.828;2023-05-10T03:25:51;98867.97;;;9.64;100.00
51239;BME280;38154;47.548;18.828;2023-05-10T03:28:18;98861.88;;;9.60;100.00
51239;BME280;38154;47.548;18.828;2023-05-10T03:30:43;98872.22;;;9.53;100.00
51239;BME280;38154;47.548;18.828;2023-05-10T03:33:10;98870.41;;;9.41;100.00
51239;BME280;38154;47.548;18.828;2023-05-10T03:35:36;98872.19;;;9.48;100.00
51239;BME280;38154;47.548;18.828;2023-05-10T03:38:01;98873.00;;;9.41;100.00
51239;BME280;38154;47.548;18.828;2023-05-10T03:40:27;98865.16;;;9.35;100.00
51239;BME280;38154;47.548;18.828;2023-05-10T03:42:58;98866.03;;;9.32;100.00
51239;BME280;38154;47.548;18.828;2023-05-10T03:45:24;98868.59;;;9.29;100.00
51239;BME280;38154;47.548;18.828;2023-05-10T03:47:49;98878.09;;;9.24;100.00
51239;BME280;38154;47.548;18.828;2023-05-10T03:50:15;98871.09;;;9.17;100.00
51239;BME280;38154;47.548;18.828;2023-05-10T03:52:41;98874.59;;;9.19;100.00
51239;BME280;38154;47.548;18.828;2023-05-10T03:55:06;98881.53;;;9.21;100.00
51239;BME280;38154;47.548;18.828;2023-05-10T03:57:33;98871.91;;;9.11;100.00
51239;BME280;38154;47.548;18.828;2023-05-10T03:59:59;98865.91;;;9.17;100.00
51239;BME280;38154;47.548;18.828;2023-05-10T04:02:25;98865.91;;;9.17;100.00
51239;BME280;38154;47.548;18.828;2023-05-10T04:04:50;98871.13;;;9.23;100.00
51239;BME280;38154;47.548;18.828;2023-05-10T04:07:16;98873.78;;;9.27;100.00
51239;BME280;38154;47.548;18.828;2023-05-10T04:09:42;98875.53;;;9.27;100.00
51239;BME280;38154;47.548;18.828;2023-05-10T04:12:07;98872.00;;;9.25;100.00
51239;BME280;38154;47.548;18.828;2023-05-10T04:14:33;98879.81;;;9.20;100.00
51239;BME280;38154;47.548;18.828;2023-05-10T04:16:59;98877.22;;;9.25;100.00
51239;BME280;38154;47.548;18.828;2023-05-10T04:19:28;98882.44;;;9.23;100.00
51239;BME280;38154;47.548;18.828;2023-05-10T04:21:54;98878.13;;;9.27;100.00
51239;BME280;38154;47.548;18.828;2023-05-10T04:24:19;98892.94;;;9.36;100.00
51239;BME280;38154;47.548;18.828;2023-05-10T04:26:45;98881.66;;;9.38;100.00
51239;BME280;38154;47.548;18.828;2023-05-10T04:29:11;98886.88;;;9.40;100.00
51239;BME280;38154;47.548;18.828;2023-05-10T04:31:36;98888.69;;;9.52;100.00
51239;BME280;38154;47.548;18.828;2023-05-10T04:34:02;98893.19;;;9.71;100.00
51239;BME280;38154;47.548;18.828;2023-05-10T04:36:28;98889.84;;;9.89;100.00
51239;BME280;38154;47.548;18.828;2023-05-10T04:38:54;98888.19;;;10.08;100.00
51239;BME280;38154;47.548;18.828;2023-05-10T04:41:19;98889.16;;;10.26;100.00
51239;BME280;38154;47.548;18.828;2023-05-10T04:43:46;98893.56;;;10.40;100.00
51239;BME280;38154;47.548;18.828;2023-05-10T04:46:14;98893.56;;;10.40;100.00
51239;BME280;38154;47.548;18.828;2023-05-10T04:48:40;98893.63;;;10.51;100.00
51239;BME280;38154;47.548;18.828;2023-05-10T04:51:05;98895.41;;;10.72;100.00
51239;BME280;38154;47.548;18.828;2023-05-10T04:53:32;98893.69;;;10.84;100.00
51239;BME280;38154;47.548;18.828;2023-05-10T04:55:57;98909.38;;;10.88;100.00
51239;BME280;38154;47.548;18.828;2023-05-10T04:58:23;98898.94;;;10.93;100.00
51239;BME280;38154;47.548;18.828;2023-05-10T05:00:49;98892.88;;;11.00;100.00
51239;BME280;38154;47.548;18.828;2023-05-10T05:03:14;98905.09;;;11.21;100.00
51239;BME280;38154;47.548;18.828;2023-05-10T05:05:40;98900.72;;;11.46;100.00
51239;BME280;38154;47.548;18.828;2023-05-10T05:08:05;98910.28;;;11.50;100.00
51239;BME280;38154;47.548;18.828;2023-05-10T05:10:31;98899.00;;;11.50;100.00
51239;BME280;38154;47.548;18.828;2023-05-10T05:12:57;98905.97;;;11.48;100.00
51239;BME280;38154;47.548;18.828;2023-05-10T05:15:22;98899.84;;;11.57;100.00
51239;BME280;38154;47.548;18.828;2023-05-10T05:17:48;98901.59;;;11.53;99.46
51239;BME280;38154;47.548;18.828;2023-05-10T05:20:14;98901.59;;;11.55;100.00
51239;BME280;38154;47.548;18.828;2023-05-10T05:22:40;98909.44;;;11.53;99.15
51239;BME280;38154;47.548;18.828;2023-05-10T05:25:05;98910.28;;;11.70;98.99
51239;BME280;38154;47.548;18.828;2023-05-10T05:27:31;98907.66;;;11.78;98.71
51239;BME280;38154;47.548;18.828;2023-05-10T05:29:57;98904.16;;;11.95;98.10
51239;BME280;38154;47.548;18.828;2023-05-10T05:32:23;98907.62;;;12.11;96.83
51239;BME280;38154;47.548;18.828;2023-05-10T05:34:49;98909.34;;;12.22;95.09
51239;BME280;38154;47.548;18.828;2023-05-10T05:37:16;98916.28;;;12.27;94.61
51239;BME280;38154;47.548;18.828;2023-05-10T05:39:42;98913.66;;;12.36;94.89
51239;BME280;38154;47.548;18.828;2023-05-10T05:42:08;98918.81;;;12.47;92.91
51239;BME280;38154;47.548;18.828;2023-05-10T05:44:34;98927.31;;;12.93;90.79
51239;BME280;38154;47.548;18.828;2023-05-10T05:47:00;98914.88;;;13.29;87.99
51239;BME280;38154;47.548;18.828;2023-05-10T05:49:25;98930.28;;;13.72;85.65
51239;BME280;38154;47.548;18.828;2023-05-10T05:51:51;98926.03;;;13.59;83.63
51239;BME280;38154;47.548;18.828;2023-05-10T05:54:17;98928.75;;;13.44;84.34
51239;BME280;38154;47.548;18.828;2023-05-10T05:56:42;98927.03;;;13.41;84.15
51239;BME280;38154;47.548;18.828;2023-05-10T05:59:09;98939.28;;;13.38;85.26
51239;BME280;38154;47.548;18.828;2023-05-10T06:01:35;98938.44;;;13.31;85.22
51239;BME280;38154;47.548;18.828;2023-05-10T06:04:01;98927.53;;;13.85;83.37
51239;BME280;38154;47.548;18.828;2023-05-10T06:06:27;98930.81;;;14.83;76.82
51239;BME280;38154;47.548;18.828;2023-05-10T06:08:53;98934.06;;;15.02;72.25
51239;BME280;38154;47.548;18.828;2023-05-10T06:11:18;98929.72;;;14.99;73.07
51239;BME280;38154;47.548;18.828;2023-05-10T06:13:45;98931.16;;;15.22;72.05
51239;BME280;38154;47.548;18.828;2023-05-10T06:16:12;98922.59;;;16.15;67.75
51239;BME280;38154;47.548;18.828;2023-05-10T06:18:38;98935.94;;;17.32;61.20
51239;BME280;38154;47.548;18.828;2023-05-10T06:21:04;98939.06;;;19.41;54.24
51239;BME280;38154;47.548;18.828;2023-05-10T06:23:29;98934.03;;;22.17;45.31
51239;BME280;38154;47.548;18.828;2023-05-10T06:25:55;98937.16;;;22.27;43.26
51239;BME280;38154;47.548;18.828;2023-05-10T06:28:21;98948.97;;;23.38;39.40
51239;BME280;38154;47.548;18.828;2023-05-10T06:30:46;98944.81;;;24.39;37.96
51239;BME280;38154;47.548;18.828;2023-05-10T06:33:13;98949.53;;;24.34;37.58
51239;BME280;38154;47.548;18.828;2023-05-10T06:35:38;98954.22;;;24.63;37.34
51239;BME280;38154;47.548;18.828;2023-05-10T06:38:04;98952.25;;;24.32;37.20
51239;BME280;38154;47.548;18.828;2023-05-10T06:40:30;98954.78;;;24.35;36.32
51239;BME280;38154;47.548;18.828;2023-05-10T06:42:55;98953.53;;;24.25;36.99
51239;BME280;38154;47.548;18.828;2023-05-10T06:45:21;98960.78;;;24.39;36.31
51239;BME280;38154;47.548;18.828;2023-05-10T06:47:47;98958.47;;;23.98;36.77
51239;BME280;38154;47.548;18.828;2023-05-10T06:50:12;98949.66;;;24.81;35.72
51239;BME280;38154;47.548;18.828;2023-05-10T06:52:38;98956.47;;;24.54;35.90
51239;BME280;38154;47.548;18.828;2023-05-10T06:55:04;98960.19;;;23.62;37.06
51239;BME280;38154;47.548;18.828;2023-05-10T06:57:30;98948.34;;;21.72;40.89
51239;BME280;38154;47.548;18.828;2023-05-10T06:59:56;98950.25;;;22.52;38.99
51239;BME280;38154;47.548;18.828;2023-05-10T07:02:22;98956.34;;;23.87;37.30
51239;BME280;38154;47.548;18.828;2023-05-10T07:04:48;98949.28;;;24.72;35.79
51239;BME280;38154;47.548;18.828;2023-05-10T07:07:14;98952.22;;;26.25;33.78
51239;BME280;38154;47.548;18.828;2023-05-10T07:09:40;98953.22;;;26.38;32.11
51239;BME280;38154;47.548;18.828;2023-05-10T07:12:05;98960.06;;;26.28;32.60
51239;BME280;38154;47.548;18.828;2023-05-10T07:14:31;98957.16;;;26.61;32.24
51239;BME280;38154;47.548;18.828;2023-05-10T07:16:57;98966.28;;;27.98;30.60
51239;BME280;38154;47.548;18.828;2023-05-10T07:19:22;98962.25;;;27.51;29.49
51239;BME280;38154;47.548;18.828;2023-05-10T07:21:48;98958.34;;;25.97;31.54
51239;BME280;38154;47.548;18.828;2023-05-10T07:24:14;98957.41;;;25.98;32.65
51239;BME280;38154;47.548;18.828;2023-05-10T07:26:39;98947.72;;;26.25;32.09
51239;BME280;38154;47.548;18.828;2023-05-10T07:29:05;98941.25;;;26.29;31.23
51239;BME280;38154;47.548;18.828;2023-05-10T07:31:31;98948.31;;;23.33;35.39
51239;BME280;38154;47.548;18.828;2023-05-10T07:33:56;98956.56;;;22.08;39.01
51239;BME280;38154;47.548;18.828;2023-05-10T07:36:22;98947.09;;;23.58;36.36
51239;BME280;38154;47.548;18.828;2023-05-10T07:38:48;98951.00;;;24.39;35.10
51239;BME280;38154;47.548;18.828;2023-05-10T07:41:14;98943.56;;;24.11;35.02
51239;BME280;38154;47.548;18.828;2023-05-10T07:43:40;98944.59;;;24.93;34.26
51239;BME280;38154;47.548;18.828;2023-05-10T07:46:06;98943.06;;;23.12;36.38
51239;BME280;38154;47.548;18.828;2023-05-10T07:48:31;98940.72;;;25.62;33.12
51239;BME280;38154;47.548;18.828;2023-05-10T07:50:57;98954.28;;;24.62;34.66
51239;BME280;38154;47.548;18.828;2023-05-10T07:53:23;98947.63;;;22.31;38.34
51239;BME280;38154;47.548;18.828;2023-05-10T07:55:52;98949.50;;;24.16;36.05
51239;BME280;38154;47.548;18.828;2023-05-10T07:58:19;98949.09;;;24.92;33.83
51239;BME280;38154;47.548;18.828;2023-05-10T08:00:45;98948.78;;;25.30;33.14
51239;BME280;38154;47.548;18.828;2023-05-10T08:03:11;98955.59;;;24.87;33.48
51239;BME280;38154;47.548;18.828;2023-05-10T08:05:37;98952.56;;;24.26;34.93
51239;BME280;38154;47.548;18.828;2023-05-10T08:08:02;98948.75;;;22.46;38.40
51239;BME280;38154;47.548;18.828;2023-05-10T08:10:28;98942.88;;;20.61;42.53
51239;BME280;38154;47.548;18.828;2023-05-10T08:12:54;98947.66;;;21.00;41.91
51239;BME280;38154;47.548;18.828;2023-05-10T08:15:19;98938.31;;;19.91;44.43
51239;BME280;38154;47.548;18.828;2023-05-10T08:17:45;98938.75;;;19.50;46.86
51239;BME280;38154;47.548;18.828;2023-05-10T08:20:11;98944.97;;;21.68;42.35
51239;BME280;38154;47.548;18.828;2023-05-10T08:22:38;98938.53;;;20.35;44.20
51239;BME280;38154;47.548;18.828;2023-05-10T08:25:03;98947.56;;;19.77;46.26
51239;BME280;38154;47.548;18.828;2023-05-10T08:27:29;98943.59;;;21.13;43.34
51239;BME280;38154;47.548;18.828;2023-05-10T08:29:55;98941.94;;;23.55;38.29
51239;BME280;38154;47.548;18.828;2023-05-10T08:32:20;98944.28;;;25.47;35.98
51239;BME280;38154;47.548;18.828;2023-05-10T08:34:46;98953.69;;;24.04;36.71
51239;BME280;38154;47.548;18.828;2023-05-10T08:37:12;98950.72;;;22.62;38.39
51239;BME280;38154;47.548;18.828;2023-05-10T08:39:38;98948.56;;;20.75;42.12
51239;BME280;38154;47.548;18.828;2023-05-10T08:42:04;98957.13;;;20.08;45.30
51239;BME280;38154;47.548;18.828;2023-05-10T08:44:34;98959.84;;;19.80;46.27
51239;BME280;38154;47.548;18.828;2023-05-10T08:47:02;98937.88;;;18.93;46.72
51239;BME280;38154;47.548;18.828;2023-05-10T08:49:30;98935.34;;;17.93;50.62
51239;BME280;38154;47.548;18.828;2023-05-10T08:51:56;98944.94;;;20.02;46.47
51239;BME280;38154;47.548;18.828;2023-05-10T08:54:22;98941.94;;;19.60;46.20
51239;BME280;38154;47.548;18.828;2023-05-10T08:56:48;98937.72;;;19.27;47.27
51239;BME280;38154;47.548;18.828;2023-05-10T08:59:14;98939.47;;;21.28;42.67
51239;BME280;38154;47.548;18.828;2023-05-10T09:01:43;98950.25;;;22.52;40.12
51239;BME280;38154;47.548;18.828;2023-05-10T09:04:12;98946.97;;;21.39;41.62
51239;BME280;38154;47.548;18.828;2023-05-10T09:06:38;98946.06;;;20.22;44.46
51239;BME280;38154;47.548;18.828;2023-05-10T09:09:11;98946.59;;;20.81;44.20
51239;BME280;38154;47.548;18.828;2023-05-10T09:11:38;98942.81;;;22.60;39.62
51239;BME280;38154;47.548;18.828;2023-05-10T09:14:04;98943.06;;;21.04;41.48
51239;BME280;38154;47.548;18.828;2023-05-10T09:16:30;98943.06;;;19.81;44.58
51239;BME280;38154;47.548;18.828;2023-05-10T09:18:55;98938.84;;;19.47;44.88
51239;BME280;38154;47.548;18.828;2023-05-10T09:21:21;98941.69;;;21.39;41.33
51239;BME280;38154;47.548;18.828;2023-05-10T09:23:47;98947.59;;;21.24;40.29
51239;BME280;38154;47.548;18.828;2023-05-10T09:26:15;98945.44;;;20.14;43.24
51239;BME280;38154;47.548;18.828;2023-05-10T09:28:54;98945.66;;;19.82;43.42
51239;BME280;38154;47.548;18.828;2023-05-10T09:31:20;98947.00;;;20.21;43.43
51239;BME280;38154;47.548;18.828;2023-05-10T09:33:47;98945.50;;;21.32;40.50
51239;BME280;38154;47.548;18.828;2023-05-10T09:36:13;98935.66;;;22.21;39.11
51239;BME280;38154;47.548;18.828;2023-05-10T09:38:47;98929.06;;;23.09;37.05
51239;BME280;38154;47.548;18.828;2023-05-10T09:41:21;98936.84;;;23.50;36.21
51239;BME280;38154;47.548;18.828;2023-05-10T09:43:47;98934.69;;;23.76;36.19
51239;BME280;38154;47.548;18.828;2023-05-10T09:46:13;98945.94;;;24.17;34.70
51239;BME280;38154;47.548;18.828;2023-05-10T09:48:43;98942.19;;;24.55;33.37
51239;BME280;38154;47.548;18.828;2023-05-10T09:51:09;98937.91;;;24.86;32.86
51239;BME280;38154;47.548;18.828;2023-05-10T09:53:35;98930.50;;;25.39;32.22
51239;BME280;38154;47.548;18.828;2023-05-10T09:56:00;98941.34;;;25.04;32.13
51239;BME280;38154;47.548;18.828;2023-05-10T09:58:26;98919.31;;;24.33;32.90
51239;BME280;38154;47.548;18.828;2023-05-10T10:00:52;98914.44;;;22.79;35.29
51239;BME280;38154;47.548;18.828;2023-05-10T10:03:19;98922.00;;;23.63;35.05
51239;BME280;38154;47.548;18.828;2023-05-10T10:05:46;98911.00;;;23.52;33.99
51239;BME280;38154;47.548;18.828;2023-05-10T10:08:12;98908.03;;;24.28;33.49
51239;BME280;38154;47.548;18.828;2023-05-10T10:10:38;98923.47;;;23.51;34.78
51239;BME280;38154;47.548;18.828;2023-05-10T10:13:06;98918.91;;;23.90;34.37
51239;BME280;38154;47.548;18.828;2023-05-10T10:15:33;98923.31;;;23.18;36.32
51239;BME280;38154;47.548;18.828;2023-05-10T10:17:59;98919.91;;;23.33;35.91
51239;BME280;38154;47.548;18.828;2023-05-10T10:20:25;98912.84;;;24.72;34.33
51239;BME280;38154;47.548;18.828;2023-05-10T10:22:51;98910.84;;;23.92;35.60
51239;BME280;38154;47.548;18.828;2023-05-10T10:25:17;98908.44;;;22.55;36.63
51239;BME280;38154;47.548;18.828;2023-05-10T10:35:48;98897.75;;;19.90;41.64
51239;BME280;38154;47.548;18.828;2023-05-10T10:38:13;98907.69;;;21.71;39.95
51239;BME280;38154;47.548;18.828;2023-05-10T10:40:39;98899.78;;;23.09;36.19
51239;BME280;38154;47.548;18.828;2023-05-10T10:43:25;98903.03;;;22.96;36.31
51239;BME280;38154;47.548;18.828;2023-05-10T10:48:35;98897.06;;;23.47;36.00
51239;BME280;38154;47.548;18.828;2023-05-10T10:51:01;98890.88;;;22.91;36.06
51239;BME280;38154;47.548;18.828;2023-05-10T10:53:27;98886.19;;;21.77;37.91
51239;BME280;38154;47.548;18.828;2023-05-10T10:56:06;98890.50;;;20.69;40.48
51239;BME280;38154;47.548;18.828;2023-05-10T10:58:35;98881.44;;;20.51;41.08
51239;BME280;38154;47.548;18.828;2023-05-10T11:01:14;98883.25;;;21.41;38.57
51239;BME280;38154;47.548;18.828;2023-05-10T11:03:40;98883.59;;;20.65;39.43
51239;BME280;38154;47.548;18.828;2023-05-10T11:06:06;98868.69;;;19.89;41.51
51239;BME280;38154;47.548;18.828;2023-05-10T11:08:34;98876.09;;;20.77;40.35
51239;BME280;38154;47.548;18.828;2023-05-10T11:11:06;98868.09;;;21.87;36.91
51239;BME280;38154;47.548;18.828;2023-05-10T11:13:33;98854.69;;;22.69;36.30
51239;BME280;38154;47.548;18.828;2023-05-10T11:16:10;98868.91;;;22.49;36.65
51239;BME280;38154;47.548;18.828;2023-05-10T11:18:36;98859.59;;;21.79;39.01
51239;BME280;38154;47.548;18.828;2023-05-10T11:21:02;98869.44;;;22.94;36.34
51239;BME280;38154;47.548;18.828;2023-05-10T11:23:31;98861.53;;;23.48;33.90
51239;BME280;38154;47.548;18.828;2023-05-10T11:25:57;98866.72;;;24.03;33.83
51239;BME280;38154;47.548;18.828;2023-05-10T11:28:23;98857.87;;;24.86;33.22
51239;BME280;38154;47.548;18.828;2023-05-10T11:30:48;98858.16;;;24.48;32.11
51239;BME280;38154;47.548;18.828;2023-05-10T11:33:15;98870.09;;;23.55;33.37
51239;BME280;38154;47.548;18.828;2023-05-10T11:35:40;98859.50;;;21.60;36.16
51239;BME280;38154;47.548;18.828;2023-05-10T11:38:08;98852.16;;;20.07;38.94
51239;BME280;38154;47.548;18.828;2023-05-10T11:40:35;98858.00;;;20.64;40.52
51239;BME280;38154;47.548;18.828;2023-05-10T11:43:01;98839.75;;;21.45;38.27
51239;BME280;38154;47.548;18.828;2023-05-10T11:45:27;98841.03;;;21.14;37.96
51239;BME280;38154;47.548;18.828;2023-05-10T11:47:57;98836.16;;;20.34;40.51
51239;BME280;38154;47.548;18.828;2023-05-10T11:50:23;98835.91;;;19.93;40.47
51239;BME280;38154;47.548;18.828;2023-05-10T11:52:55;98835.31;;;19.33;40.88
51239;BME280;38154;47.548;18.828;2023-05-10T11:55:21;98839.38;;;18.88;42.01
51239;BME280;38154;47.548;18.828;2023-05-10T11:57:48;98829.50;;;19.48;41.72
51239;BME280;38154;47.548;18.828;2023-05-10T12:00:16;98830.00;;;20.10;40.14
51239;BME280;38154;47.548;18.828;2023-05-10T12:02:42;98834.63;;;20.75;39.49
51239;BME280;38154;47.548;18.828;2023-05-10T12:05:08;98828.50;;;21.18;38.36
51239;BME280;38154;47.548;18.828;2023-05-10T12:07:34;98841.94;;;20.91;37.09
51239;BME280;38154;47.548;18.828;2023-05-10T12:10:34;98835.97;;;21.30;38.06
51239;BME280;38154;47.548;18.828;2023-05-10T12:12:52;98847.63;;;21.48;37.16
51239;BME280;38154;47.548;18.828;2023-05-10T12:15:19;98833.81;;;20.96;37.55
51239;BME280;38154;47.548;18.828;2023-05-10T12:17:45;98832.31;;;21.33;36.20
51239;BME280;38154;47.548;18.828;2023-05-10T12:22:47;98824.06;;;20.50;36.94
51239;BME280;38154;47.548;18.828;2023-05-10T12:25:13;98828.41;;;20.77;39.32
51239;BME280;38154;47.548;18.828;2023-05-10T12:27:38;98841.66;;;20.99;38.74
51239;BME280;38154;47.548;18.828;2023-05-10T12:30:04;98836.06;;;20.37;37.86
51239;BME280;38154;47.548;18.828;2023-05-10T12:32:40;98812.75;;;20.23;38.21
51239;BME280;38154;47.548;18.828;2023-05-10T12:35:06;98818.66;;;19.82;40.37
51239;BME280;38154;47.548;18.828;2023-05-10T12:37:31;98820.00;;;19.42;41.72
51239;BME280;38154;47.548;18.828;2023-05-10T12:40:01;98833.72;;;19.27;41.94
51239;BME280;38154;47.548;18.828;2023-05-10T12:42:27;98826.34;;;19.10;43.14
51239;BME280;38154;47.548;18.828;2023-05-10T12:44:56;98813.13;;;18.82;43.60
51239;BME280;38154;47.548;18.828;2023-05-10T12:47:22;98803.56;;;18.49;44.12
51239;BME280;38154;47.548;18.828;2023-05-10T12:49:48;98813.41;;;18.72;43.13
51239;BME280;38154;47.548;18.828;2023-05-10T12:52:13;98817.97;;;18.97;43.04
51239;BME280;38154;47.548;18.828;2023-05-10T12:54:39;98796.25;;;19.41;41.88
51239;BME280;38154;47.548;18.828;2023-05-10T12:57:05;98800.38;;;19.23;40.79
51239;BME280;38154;47.548;18.828;2023-05-10T12:59:30;98796.84;;;18.97;40.79
51239;BME280;38154;47.548;18.828;2023-05-10T13:01:57;98798.09;;;19.12;41.03
51239;BME280;38154;47.548;18.828;2023-05-10T13:04:22;98791.72;;;19.70;40.92
51239;BME280;38154;47.548;18.828;2023-05-10T13:06:48;98785.59;;;19.94;40.62
51239;BME280;38154;47.548;18.828;2023-05-10T13:09:14;98785.28;;;20.02;39.63
51239;BME280;38154;47.548;18.828;2023-05-10T13:11:40;98799.16;;;20.09;39.97
51239;BME280;38154;47.548;18.828;2023-05-10T13:14:06;98793.00;;;19.85;40.51
51239;BME280;38154;47.548;18.828;2023-05-10T13:16:32;98782.09;;;19.42;41.41